Evansville, Indiana
Current Conditions -  °F | °C
As of 6:54 PM on Tuesday 27 Jan 2015 (Local Time) from KEVV Reporting Station
Overcast Overcast  
Wind Chill: 29°   Ceiling: 2300
Heat Index: 34°   Visibility: 10mi
Dew Point: 29°   Wind: 6mph
Humidity: 82%   Direction: 360°N
Pressure: 30.25"   Gusts: NA
Location:  37.98°N, 87.56°W
Report Text: KEVV 280054Z 36005KT 10SM BKN023 OVC036 01/M02 A3025 RMK AO2 SLP247 T00111017
Loading
Personal Weather Stations






























Interactive Weather Map New forecast layout! Learn more

10-Day Weather Forecast

Advertisements
Track Severe Weather on mobile